sensor_id;sensor_type;location;lat;lon;timestamp;temperature;humidity
12152;DHT22;6139;51.274;7.128;2023-03-14T00:00:09;10.30;99.90
12152;DHT22;6139;51.274;7.128;2023-03-14T00:01:12;10.40;99.90
12152;DHT22;6139;51.274;7.128;2023-03-14T00:02:14;10.40;99.90
12152;DHT22;6139;51.274;7.128;2023-03-14T00:03:15;10.40;99.90
12152;DHT22;6139;51.274;7.128;2023-03-14T00:04:17;10.40;99.90
12152;DHT22;6139;51.274;7.128;2023-03-14T00:05:19;10.40;99.90
12152;DHT22;6139;51.274;7.128;2023-03-14T00:06:21;10.40;99.90
12152;DHT22;6139;51.274;7.128;2023-03-14T00:07:22;10.40;99.90
12152;DHT22;6139;51.274;7.128;2023-03-14T00:08:25;10.40;99.90
12152;DHT22;6139;51.274;7.128;2023-03-14T00:09:26;10.40;99.90
12152;DHT22;6139;51.274;7.128;2023-03-14T00:10:30;10.40;99.90
12152;DHT22;6139;51.274;7.128;2023-03-14T00:11:31;10.40;99.90
12152;DHT22;6139;51.274;7.128;2023-03-14T00:12:33;10.40;99.90
12152;DHT22;6139;51.274;7.128;2023-03-14T00:13:34;10.40;99.90
12152;DHT22;6139;51.274;7.128;2023-03-14T00:14:36;10.40;99.90
12152;DHT22;6139;51.274;7.128;2023-03-14T00:15:38;10.40;99.90
12152;DHT22;6139;51.274;7.128;2023-03-14T00:16:40;10.40;99.90
12152;DHT22;6139;51.274;7.128;2023-03-14T00:17:43;10.40;99.90
12152;DHT22;6139;51.274;7.128;2023-03-14T00:18:45;10.40;99.90
12152;DHT22;6139;51.274;7.128;2023-03-14T00:19:46;10.40;99.90
12152;DHT22;6139;51.274;7.128;2023-03-14T00:20:50;10.30;99.90
12152;DHT22;6139;51.274;7.128;2023-03-14T00:21:51;10.30;99.90
12152;DHT22;6139;51.274;7.128;2023-03-14T00:22:53;10.30;99.90
12152;DHT22;6139;51.274;7.128;2023-03-14T00:23:54;10.30;99.90
12152;DHT22;6139;51.274;7.128;2023-03-14T00:24:56;10.30;99.90
12152;DHT22;6139;51.274;7.128;2023-03-14T00:25:58;10.30;99.90
12152;DHT22;6139;51.274;7.128;2023-03-14T00:27:01;10.30;99.90
12152;DHT22;6139;51.274;7.128;2023-03-14T00:28:02;10.30;6.90
12152;DHT22;6139;51.274;7.128;2023-03-14T00:29:04;10.30;99.90
12152;DHT22;6139;51.274;7.128;2023-03-14T00:30:07;10.40;99.90
12152;DHT22;6139;51.274;7.128;2023-03-14T00:31:12;10.40;99.90
12152;DHT22;6139;51.274;7.128;2023-03-14T00:32:15;10.40;99.90
12152;DHT22;6139;51.274;7.128;2023-03-14T00:33:17;10.40;99.90
12152;DHT22;6139;51.274;7.128;2023-03-14T00:34:18;10.30;99.90
12152;DHT22;6139;51.274;7.128;2023-03-14T00:35:20;10.40;33.20
12152;DHT22;6139;51.274;7.128;2023-03-14T00:36:21;10.40;99.90
12152;DHT22;6139;51.274;7.128;2023-03-14T00:37:24;10.40;67.80
12152;DHT22;6139;51.274;7.128;2023-03-14T00:38:25;10.40;99.90
12152;DHT22;6139;51.274;7.128;2023-03-14T00:39:27;10.50;84.00
12152;DHT22;6139;51.274;7.128;2023-03-14T00:40:28;10.50;75.40
12152;DHT22;6139;51.274;7.128;2023-03-14T00:41:30;10.50;48.10
12152;DHT22;6139;51.274;7.128;2023-03-14T00:42:31;10.50;1.00
12152;DHT22;6139;51.274;7.128;2023-03-14T00:43:33;10.50;1.00
12152;DHT22;6139;51.274;7.128;2023-03-14T00:44:34;10.50;33.70
12152;DHT22;6139;51.274;7.128;2023-03-14T00:45:41;10.50;1.00
12152;DHT22;6139;51.274;7.128;2023-03-14T00:46:43;10.50;16.40
12152;DHT22;6139;51.274;7.128;2023-03-14T00:47:45;10.50;99.90
12152;DHT22;6139;51.274;7.128;2023-03-14T00:48:46;10.50;99.90
12152;DHT22;6139;51.274;7.128;2023-03-14T00:49:48;10.50;99.90
12152;DHT22;6139;51.274;7.128;2023-03-14T00:50:50;10.50;99.90
12152;DHT22;6139;51.274;7.128;2023-03-14T00:51:52;10.50;99.90
12152;DHT22;6139;51.274;7.128;2023-03-14T00:52:53;10.50;99.90
12152;DHT22;6139;51.274;7.128;2023-03-14T00:53:55;10.50;99.90
12152;DHT22;6139;51.274;7.128;2023-03-14T00:54:56;10.50;38.40
12152;DHT22;6139;51.274;7.128;2023-03-14T00:56:02;10.50;1.00
12152;DHT22;6139;51.274;7.128;2023-03-14T00:57:03;10.50;1.00
12152;DHT22;6139;51.274;7.128;2023-03-14T00:58:05;10.50;1.00
12152;DHT22;6139;51.274;7.128;2023-03-14T00:59:06;10.50;1.00
12152;DHT22;6139;51.274;7.128;2023-03-14T01:00:09;10.50;1.00
12152;DHT22;6139;51.274;7.128;2023-03-14T01:01:14;10.50;21.70
12152;DHT22;6139;51.274;7.128;2023-03-14T01:02:18;10.50;99.90
12152;DHT22;6139;51.274;7.128;2023-03-14T01:03:18;10.40;99.90
12152;DHT22;6139;51.274;7.128;2023-03-14T01:04:20;10.30;99.90
12152;DHT22;6139;51.274;7.128;2023-03-14T01:05:22;10.30;99.90
12152;DHT22;6139;51.274;7.128;2023-03-14T01:06:26;10.30;99.90
12152;DHT22;6139;51.274;7.128;2023-03-14T01:07:27;10.20;99.90
12152;DHT22;6139;51.274;7.128;2023-03-14T01:08:29;10.20;99.90
12152;DHT22;6139;51.274;7.128;2023-03-14T01:09:30;10.10;99.90
12152;DHT22;6139;51.274;7.128;2023-03-14T01:10:32;10.10;99.90
12152;DHT22;6139;51.274;7.128;2023-03-14T01:11:34;10.00;99.90
12152;DHT22;6139;51.274;7.128;2023-03-14T01:12:37;9.90;99.90
12152;DHT22;6139;51.274;7.128;2023-03-14T01:13:38;9.90;99.90
12152;DHT22;6139;51.274;7.128;2023-03-14T01:14:40;9.90;99.90
12152;DHT22;6139;51.274;7.128;2023-03-14T01:15:41;9.90;99.90
12152;DHT22;6139;51.274;7.128;2023-03-14T01:16:45;9.90;99.90
12152;DHT22;6139;51.274;7.128;2023-03-14T01:17:48;9.80;99.90
12152;DHT22;6139;51.274;7.128;2023-03-14T01:18:51;9.70;99.90
12152;DHT22;6139;51.274;7.128;2023-03-14T01:19:52;9.70;99.90
12152;DHT22;6139;51.274;7.128;2023-03-14T01:20:54;9.60;99.90
12152;DHT22;6139;51.274;7.128;2023-03-14T01:21:55;9.60;99.90
12152;DHT22;6139;51.274;7.128;2023-03-14T01:22:57;9.50;99.90
12152;DHT22;6139;51.274;7.128;2023-03-14T01:23:59;9.50;99.90
12152;DHT22;6139;51.274;7.128;2023-03-14T01:25:02;9.40;99.90
12152;DHT22;6139;51.274;7.128;2023-03-14T01:26:03;9.30;99.90
12152;DHT22;6139;51.274;7.128;2023-03-14T01:27:05;9.30;99.90
12152;DHT22;6139;51.274;7.128;2023-03-14T01:28:06;9.30;99.90
12152;DHT22;6139;51.274;7.128;2023-03-14T01:29:08;9.30;99.90
12152;DHT22;6139;51.274;7.128;2023-03-14T01:30:13;9.20;99.90
12152;DHT22;6139;51.274;7.128;2023-03-14T01:31:16;9.30;99.90
12152;DHT22;6139;51.274;7.128;2023-03-14T01:32:17;9.20;99.90
12152;DHT22;6139;51.274;7.128;2023-03-14T01:33:20;9.20;99.90
12152;DHT22;6139;51.274;7.128;2023-03-14T01:34:21;9.20;99.90
12152;DHT22;6139;51.274;7.128;2023-03-14T01:35:24;9.20;99.90
12152;DHT22;6139;51.274;7.128;2023-03-14T01:36:25;9.20;99.90
12152;DHT22;6139;51.274;7.128;2023-03-14T01:37:28;9.10;99.90
12152;DHT22;6139;51.274;7.128;2023-03-14T01:38:29;9.10;99.90
12152;DHT22;6139;51.274;7.128;2023-03-14T01:39:31;9.10;99.90
12152;DHT22;6139;51.274;7.128;2023-03-14T01:40:32;9.10;99.90
12152;DHT22;6139;51.274;7.128;2023-03-14T01:41:34;9.10;99.90
12152;DHT22;6139;51.274;7.128;2023-03-14T01:42:34;9.10;99.90
12152;DHT22;6139;51.274;7.128;2023-03-14T01:43:36;9.10;99.90
12152;DHT22;6139;51.274;7.128;2023-03-14T01:44:48;9.10;99.90
12152;DHT22;6139;51.274;7.128;2023-03-14T01:46:22;9.00;99.90
12152;DHT22;6139;51.274;7.128;2023-03-14T01:47:26;9.00;99.90
12152;DHT22;6139;51.274;7.128;2023-03-14T01:48:31;9.00;99.90
12152;DHT22;6139;51.274;7.128;2023-03-14T01:49:35;9.00;99.90
12152;DHT22;6139;51.274;7.128;2023-03-14T01:50:44;9.00;99.90
12152;DHT22;6139;51.274;7.128;2023-03-14T01:51:48;9.00;99.90
12152;DHT22;6139;51.274;7.128;2023-03-14T01:52:51;9.00;99.90
12152;DHT22;6139;51.274;7.128;2023-03-14T01:53:54;9.00;99.90
12152;DHT22;6139;51.274;7.128;2023-03-14T01:55:03;9.00;99.90
12152;DHT22;6139;51.274;7.128;2023-03-14T01:56:08;9.00;99.90
12152;DHT22;6139;51.274;7.128;2023-03-14T01:57:12;8.90;99.90
12152;DHT22;6139;51.274;7.128;2023-03-14T01:58:16;8.90;99.90
12152;DHT22;6139;51.274;7.128;2023-03-14T01:59:18;9.00;99.90
12152;DHT22;6139;51.274;7.128;2023-03-14T02:00:22;8.90;99.90
12152;DHT22;6139;51.274;7.128;2023-03-14T02:01:25;8.90;99.90
12152;DHT22;6139;51.274;7.128;2023-03-14T02:02:28;8.90;99.90
12152;DHT22;6139;51.274;7.128;2023-03-14T02:03:35;8.90;99.90
12152;DHT22;6139;51.274;7.128;2023-03-14T02:04:37;8.90;99.90
12152;DHT22;6139;51.274;7.128;2023-03-14T02:05:42;8.90;99.90
12152;DHT22;6139;51.274;7.128;2023-03-14T02:07:01;8.80;99.90
12152;DHT22;6139;51.274;7.128;2023-03-14T02:08:11;8.80;99.90
12152;DHT22;6139;51.274;7.128;2023-03-14T02:09:22;8.90;99.90
12152;DHT22;6139;51.274;7.128;2023-03-14T02:10:27;8.90;99.90
12152;DHT22;6139;51.274;7.128;2023-03-14T02:11:30;8.90;99.90
12152;DHT22;6139;51.274;7.128;2023-03-14T02:13:05;8.90;99.90
12152;DHT22;6139;51.274;7.128;2023-03-14T02:14:39;8.90;99.90
12152;DHT22;6139;51.274;7.128;2023-03-14T02:16:15;8.90;99.90
12152;DHT22;6139;51.274;7.128;2023-03-14T02:17:35;8.90;99.90
12152;DHT22;6139;51.274;7.128;2023-03-14T02:18:53;9.00;99.90
12152;DHT22;6139;51.274;7.128;2023-03-14T02:20:30;8.90;99.90
12152;DHT22;6139;51.274;7.128;2023-03-14T02:21:42;9.00;99.90
12152;DHT22;6139;51.274;7.128;2023-03-14T02:22:46;8.90;99.90
12152;DHT22;6139;51.274;7.128;2023-03-14T02:23:57;9.00;99.90
12152;DHT22;6139;51.274;7.128;2023-03-14T02:25:08;8.90;99.90
12152;DHT22;6139;51.274;7.128;2023-03-14T02:26:16;8.90;99.90
12152;DHT22;6139;51.274;7.128;2023-03-14T02:27:21;8.90;99.90
12152;DHT22;6139;51.274;7.128;2023-03-14T02:28:23;8.90;99.90
12152;DHT22;6139;51.274;7.128;2023-03-14T02:29:29;8.90;99.90
12152;DHT22;6139;51.274;7.128;2023-03-14T02:30:34;8.90;99.90
12152;DHT22;6139;51.274;7.128;2023-03-14T02:31:36;8.90;99.90
12152;DHT22;6139;51.274;7.128;2023-03-14T02:32:40;8.80;99.90
12152;DHT22;6139;51.274;7.128;2023-03-14T02:33:43;8.90;99.90
12152;DHT22;6139;51.274;7.128;2023-03-14T02:34:47;8.90;99.90
12152;DHT22;6139;51.274;7.128;2023-03-14T02:35:53;8.90;99.90
12152;DHT22;6139;51.274;7.128;2023-03-14T02:36:56;8.90;99.90
12152;DHT22;6139;51.274;7.128;2023-03-14T02:38:03;8.90;99.90
12152;DHT22;6139;51.274;7.128;2023-03-14T02:39:15;8.90;99.90
12152;DHT22;6139;51.274;7.128;2023-03-14T02:40:21;8.90;99.90
12152;DHT22;6139;51.274;7.128;2023-03-14T02:41:25;8.90;99.90
12152;DHT22;6139;51.274;7.128;2023-03-14T02:42:36;8.90;99.90
12152;DHT22;6139;51.274;7.128;2023-03-14T02:43:38;8.80;99.90
12152;DHT22;6139;51.274;7.128;2023-03-14T02:44:52;8.80;99.90
12152;DHT22;6139;51.274;7.128;2023-03-14T02:45:55;8.80;99.90
12152;DHT22;6139;51.274;7.128;2023-03-14T02:46:57;8.80;99.90
12152;DHT22;6139;51.274;7.128;2023-03-14T02:48:02;8.80;99.90
12152;DHT22;6139;51.274;7.128;2023-03-14T02:49:08;8.80;99.90
12152;DHT22;6139;51.274;7.128;2023-03-14T02:50:14;8.80;99.90
12152;DHT22;6139;51.274;7.128;2023-03-14T02:51:16;8.70;99.90
12152;DHT22;6139;51.274;7.128;2023-03-14T02:52:21;8.70;99.90
12152;DHT22;6139;51.274;7.128;2023-03-14T02:53:25;8.70;99.90
12152;DHT22;6139;51.274;7.128;2023-03-14T02:54:31;8.70;99.90
12152;DHT22;6139;51.274;7.128;2023-03-14T02:55:32;8.70;99.90
12152;DHT22;6139;51.274;7.128;2023-03-14T02:56:39;8.70;99.90
12152;DHT22;6139;51.274;7.128;2023-03-14T02:57:42;8.70;99.90
12152;DHT22;6139;51.274;7.128;2023-03-14T02:58:44;8.70;99.90
12152;DHT22;6139;51.274;7.128;2023-03-14T03:00:05;8.70;99.90
12152;DHT22;6139;51.274;7.128;2023-03-14T03:01:09;8.80;99.90
12152;DHT22;6139;51.274;7.128;2023-03-14T03:02:12;8.80;99.90
12152;DHT22;6139;51.274;7.128;2023-03-14T03:03:13;8.80;99.90
12152;DHT22;6139;51.274;7.128;2023-03-14T03:04:15;8.80;99.90
12152;DHT22;6139;51.274;7.128;2023-03-14T03:05:20;8.80;99.90
12152;DHT22;6139;51.274;7.128;2023-03-14T03:06:21;8.80;99.90
12152;DHT22;6139;51.274;7.128;2023-03-14T03:07:23;8.80;99.90
12152;DHT22;6139;51.274;7.128;2023-03-14T03:08:27;8.80;99.90
12152;DHT22;6139;51.274;7.128;2023-03-14T03:09:31;8.80;99.90
12152;DHT22;6139;51.274;7.128;2023-03-14T03:10:32;8.80;99.90
12152;DHT22;6139;51.274;7.128;2023-03-14T03:11:34;8.80;99.90
12152;DHT22;6139;51.274;7.128;2023-03-14T03:12:35;8.80;99.90
12152;DHT22;6139;51.274;7.128;2023-03-14T03:13:40;8.80;99.90
12152;DHT22;6139;51.274;7.128;2023-03-14T03:14:44;8.80;99.90
12152;DHT22;6139;51.274;7.128;2023-03-14T03:15:45;8.80;99.90
12152;DHT22;6139;51.274;7.128;2023-03-14T03:16:47;8.80;99.90
12152;DHT22;6139;51.274;7.128;2023-03-14T03:17:48;8.70;99.90
12152;DHT22;6139;51.274;7.128;2023-03-14T03:18:50;8.70;99.90
12152;DHT22;6139;51.274;7.128;2023-03-14T03:19:51;8.70;99.90
12152;DHT22;6139;51.274;7.128;2023-03-14T03:20:53;8.70;99.90
12152;DHT22;6139;51.274;7.128;2023-03-14T03:21:57;8.80;99.90
12152;DHT22;6139;51.274;7.128;2023-03-14T03:22:59;8.70;99.90
12152;DHT22;6139;51.274;7.128;2023-03-14T03:24:01;8.70;99.90
12152;DHT22;6139;51.274;7.128;2023-03-14T03:25:02;8.70;99.90
12152;DHT22;6139;51.274;7.128;2023-03-14T03:26:05;8.70;99.90
12152;DHT22;6139;51.274;7.128;2023-03-14T03:27:06;8.70;99.90
12152;DHT22;6139;51.274;7.128;2023-03-14T03:28:09;8.70;99.90
12152;DHT22;6139;51.274;7.128;2023-03-14T03:29:14;8.70;99.90
12152;DHT22;6139;51.274;7.128;2023-03-14T03:30:16;8.70;99.90
12152;DHT22;6139;51.274;7.128;2023-03-14T03:31:17;8.70;99.90
12152;DHT22;6139;51.274;7.128;2023-03-14T03:32:19;8.70;99.90
12152;DHT22;6139;51.274;7.128;2023-03-14T03:33:20;8.70;99.90
12152;DHT22;6139;51.274;7.128;2023-03-14T03:34:23;8.80;99.90
12152;DHT22;6139;51.274;7.128;2023-03-14T03:35:26;8.80;99.90
12152;DHT22;6139;51.274;7.128;2023-03-14T03:36:30;8.80;99.90
12152;DHT22;6139;51.274;7.128;2023-03-14T03:37:34;8.80;99.90
12152;DHT22;6139;51.274;7.128;2023-03-14T03:38:38;8.80;99.90
12152;DHT22;6139;51.274;7.128;2023-03-14T03:39:40;8.80;99.90
12152;DHT22;6139;51.274;7.128;2023-03-14T03:40:42;8.80;99.90
12152;DHT22;6139;51.274;7.128;2023-03-14T03:41:43;8.80;99.90
12152;DHT22;6139;51.274;7.128;2023-03-14T03:42:45;8.80;99.90
12152;DHT22;6139;51.274;7.128;2023-03-14T03:43:48;8.80;99.90
12152;DHT22;6139;51.274;7.128;2023-03-14T03:44:52;8.80;99.90
12152;DHT22;6139;51.274;7.128;2023-03-14T03:45:53;8.80;99.90
12152;DHT22;6139;51.274;7.128;2023-03-14T03:46:58;8.70;99.90
12152;DHT22;6139;51.274;7.128;2023-03-14T03:47:59;8.70;99.90
12152;DHT22;6139;51.274;7.128;2023-03-14T03:49:01;8.70;99.90
12152;DHT22;6139;51.274;7.128;2023-03-14T03:50:03;8.70;99.90
12152;DHT22;6139;51.274;7.128;2023-03-14T03:51:06;8.70;99.90
12152;DHT22;6139;51.274;7.128;2023-03-14T03:52:09;8.70;99.90
12152;DHT22;6139;51.274;7.128;2023-03-14T03:53:10;8.70;99.90
12152;DHT22;6139;51.274;7.128;2023-03-14T03:54:12;8.70;99.90
12152;DHT22;6139;51.274;7.128;2023-03-14T03:55:13;8.70;99.90
12152;DHT22;6139;51.274;7.128;2023-03-14T03:56:17;8.70;99.90
12152;DHT22;6139;51.274;7.128;2023-03-14T03:57:19;8.70;99.90
12152;DHT22;6139;51.274;7.128;2023-03-14T03:58:21;8.60;99.90
12152;DHT22;6139;51.274;7.128;2023-03-14T03:59:22;8.60;99.90
12152;DHT22;6139;51.274;7.128;2023-03-14T04:00:25;8.60;99.90
12152;DHT22;6139;51.274;7.128;2023-03-14T04:01:26;8.50;99.90
12152;DHT22;6139;51.274;7.128;2023-03-14T04:02:31;8.50;99.90
12152;DHT22;6139;51.274;7.128;2023-03-14T04:03:32;8.50;99.90
12152;DHT22;6139;51.274;7.128;2023-03-14T04:04:34;8.50;99.90
12152;DHT22;6139;51.274;7.128;2023-03-14T04:05:37;8.50;99.90
12152;DHT22;6139;51.274;7.128;2023-03-14T04:06:43;8.50;99.90
12152;DHT22;6139;51.274;7.128;2023-03-14T04:07:44;8.50;99.90
12152;DHT22;6139;51.274;7.128;2023-03-14T04:08:47;8.50;99.90
12152;DHT22;6139;51.274;7.128;2023-03-14T04:10:11;8.50;99.90
12152;DHT22;6139;51.274;7.128;2023-03-14T04:11:17;8.50;99.90
12152;DHT22;6139;51.274;7.128;2023-03-14T04:12:32;8.50;99.90
12152;DHT22;6139;51.274;7.128;2023-03-14T04:13:41;8.50;99.90
12152;DHT22;6139;51.274;7.128;2023-03-14T04:14:43;8.50;99.90
12152;DHT22;6139;51.274;7.128;2023-03-14T04:15:52;8.60;99.90
12152;DHT22;6139;51.274;7.128;2023-03-14T04:16:57;8.60;99.90
12152;DHT22;6139;51.274;7.128;2023-03-14T04:17:59;8.60;99.90
12152;DHT22;6139;51.274;7.128;2023-03-14T04:19:01;8.60;99.90
12152;DHT22;6139;51.274;7.128;2023-03-14T04:20:04;8.50;99.90
12152;DHT22;6139;51.274;7.128;2023-03-14T04:21:09;8.50;99.90
12152;DHT22;6139;51.274;7.128;2023-03-14T04:22:19;8.50;99.90
12152;DHT22;6139;51.274;7.128;2023-03-14T04:23:25;8.50;99.90
12152;DHT22;6139;51.274;7.128;2023-03-14T04:24:27;8.50;99.90
12152;DHT22;6139;51.274;7.128;2023-03-14T04:25:30;8.60;99.90
12152;DHT22;6139;51.274;7.128;2023-03-14T04:26:35;8.50;99.90
12152;DHT22;6139;51.274;7.128;2023-03-14T04:27:36;8.50;99.90
12152;DHT22;6139;51.274;7.128;2023-03-14T04:28:42;8.50;99.90
12152;DHT22;6139;51.274;7.128;2023-03-14T04:29:44;8.60;99.90
12152;DHT22;6139;51.274;7.128;2023-03-14T04:30:50;8.60;99.90
12152;DHT22;6139;51.274;7.128;2023-03-14T04:31:55;8.60;99.90
12152;DHT22;6139;51.274;7.128;2023-03-14T04:32:57;8.60;99.90
12152;DHT22;6139;51.274;7.128;2023-03-14T04:34:00;8.60;99.90
12152;DHT22;6139;51.274;7.128;2023-03-14T04:35:17;8.60;99.90
12152;DHT22;6139;51.274;7.128;2023-03-14T04:36:18;8.60;99.90
12152;DHT22;6139;51.274;7.128;2023-03-14T04:37:20;8.60;99.90
12152;DHT22;6139;51.274;7.128;2023-03-14T04:38:21;8.60;99.90
12152;DHT22;6139;51.274;7.128;2023-03-14T04:39:24;8.60;99.90
12152;DHT22;6139;51.274;7.128;2023-03-14T04:40:30;8.60;99.90
12152;DHT22;6139;51.274;7.128;2023-03-14T04:41:37;8.50;99.90
12152;DHT22;6139;51.274;7.128;2023-03-14T04:42:38;8.50;99.90
12152;DHT22;6139;51.274;7.128;2023-03-14T04:43:40;8.50;99.90
12152;DHT22;6139;51.274;7.128;2023-03-14T04:44:43;8.50;99.90
12152;DHT22;6139;51.274;7.128;2023-03-14T04:45:47;8.50;99.90
12152;DHT22;6139;51.274;7.128;2023-03-14T04:46:50;8.50;99.90
12152;DHT22;6139;51.274;7.128;2023-03-14T04:47:52;8.50;99.90
12152;DHT22;6139;51.274;7.128;2023-03-14T04:48:54;8.50;99.90
12152;DHT22;6139;51.274;7.128;2023-03-14T04:49:58;8.50;99.90
12152;DHT22;6139;51.274;7.128;2023-03-14T04:51:00;8.50;99.90
12152;DHT22;6139;51.274;7.128;2023-03-14T04:52:05;8.50;99.90
12152;DHT22;6139;51.274;7.128;2023-03-14T04:53:09;8.50;99.90
12152;DHT22;6139;51.274;7.128;2023-03-14T04:54:11;8.50;99.90
12152;DHT22;6139;51.274;7.128;2023-03-14T04:55:13;8.50;99.90
12152;DHT22;6139;51.274;7.128;2023-03-14T04:56:15;8.50;99.90
12152;DHT22;6139;51.274;7.128;2023-03-14T04:57:18;8.50;99.90
12152;DHT22;6139;51.274;7.128;2023-03-14T04:58:21;8.50;99.90
12152;DHT22;6139;51.274;7.128;2023-03-14T04:59:23;8.50;99.90
12152;DHT22;6139;51.274;7.128;2023-03-14T05:00:28;8.50;99.90
12152;DHT22;6139;51.274;7.128;2023-03-14T05:01:35;8.50;99.90
12152;DHT22;6139;51.274;7.128;2023-03-14T05:03:01;8.50;99.90
12152;DHT22;6139;51.274;7.128;2023-03-14T05:04:22;8.50;99.90
12152;DHT22;6139;51.274;7.128;2023-03-14T05:05:32;8.50;99.90
12152;DHT22;6139;51.274;7.128;2023-03-14T05:06:37;8.50;99.90
12152;DHT22;6139;51.274;7.128;2023-03-14T05:08:00;8.50;99.90
12152;DHT22;6139;51.274;7.128;2023-03-14T05:09:30;8.50;99.90
12152;DHT22;6139;51.274;7.128;2023-03-14T05:10:32;8.50;99.90
12152;DHT22;6139;51.274;7.128;2023-03-14T05:12:06;8.50;99.90
12152;DHT22;6139;51.274;7.128;2023-03-14T05:13:27;8.50;99.90
12152;DHT22;6139;51.274;7.128;2023-03-14T05:14:39;8.50;99.90
12152;DHT22;6139;51.274;7.128;2023-03-14T05:16:06;8.50;99.90
12152;DHT22;6139;51.274;7.128;2023-03-14T05:17:20;8.50;99.90
12152;DHT22;6139;51.274;7.128;2023-03-14T05:18:40;8.50;99.90
12152;DHT22;6139;51.274;7.128;2023-03-14T05:19:48;8.50;99.90
12152;DHT22;6139;51.274;7.128;2023-03-14T05:21:03;8.50;99.90
12152;DHT22;6139;51.274;7.128;2023-03-14T05:22:23;8.50;99.90
12152;DHT22;6139;51.274;7.128;2023-03-14T05:23:53;8.50;99.90
12152;DHT22;6139;51.274;7.128;2023-03-14T05:25:24;8.50;99.90
12152;DHT22;6139;51.274;7.128;2023-03-14T05:26:43;8.50;99.90
12152;DHT22;6139;51.274;7.128;2023-03-14T05:27:54;8.50;99.90
12152;DHT22;6139;51.274;7.128;2023-03-14T05:29:06;8.50;99.90
12152;DHT22;6139;51.274;7.128;2023-03-14T05:30:17;8.50;99.90
12152;DHT22;6139;51.274;7.128;2023-03-14T05:31:36;8.50;99.90
12152;DHT22;6139;51.274;7.128;2023-03-14T05:33:05;8.50;99.90
12152;DHT22;6139;51.274;7.128;2023-03-14T05:34:46;8.50;99.90
12152;DHT22;6139;51.274;7.128;2023-03-14T05:36:05;8.50;99.90
12152;DHT22;6139;51.274;7.128;2023-03-14T05:37:33;8.50;99.90
12152;DHT22;6139;51.274;7.128;2023-03-14T05:39:07;8.50;99.90
12152;DHT22;6139;51.274;7.128;2023-03-14T05:40:15;8.50;99.90
12152;DHT22;6139;51.274;7.128;2023-03-14T05:41:42;8.50;99.90
12152;DHT22;6139;51.274;7.128;2023-03-14T05:42:50;8.50;99.90
12152;DHT22;6139;51.274;7.128;2023-03-14T05:44:10;8.50;99.90
12152;DHT22;6139;51.274;7.128;2023-03-14T05:45:24;8.50;99.90
12152;DHT22;6139;51.274;7.128;2023-03-14T05:46:40;8.50;99.90
12152;DHT22;6139;51.274;7.128;2023-03-14T05:47:59;8.50;99.90
12152;DHT22;6139;51.274;7.128;2023-03-14T05:49:21;8.50;99.90
12152;DHT22;6139;51.274;7.128;2023-03-14T05:51:00;8.50;99.90
12152;DHT22;6139;51.274;7.128;2023-03-14T05:52:12;8.50;99.90
12152;DHT22;6139;51.274;7.128;2023-03-14T05:53:31;8.50;99.90
12152;DHT22;6139;51.274;7.128;2023-03-14T05:54:51;8.50;99.90
12152;DHT22;6139;51.274;7.128;2023-03-14T05:56:03;8.50;99.90
12152;DHT22;6139;51.274;7.128;2023-03-14T05:57:28;8.50;99.90
12152;DHT22;6139;51.274;7.128;2023-03-14T05:58:48;8.50;99.90
12152;DHT22;6139;51.274;7.128;2023-03-14T05:59:53;8.50;99.90
12152;DHT22;6139;51.274;7.128;2023-03-14T06:01:13;8.50;99.90
12152;DHT22;6139;51.274;7.128;2023-03-14T06:02:34;8.50;99.90
12152;DHT22;6139;51.274;7.128;2023-03-14T06:03:45;8.50;99.90
12152;DHT22;6139;51.274;7.128;2023-03-14T06:04:47;8.50;99.90
12152;DHT22;6139;51.274;7.128;2023-03-14T06:05:50;8.50;99.90
12152;DHT22;6139;51.274;7.128;2023-03-14T06:06:52;8.50;99.90
12152;DHT22;6139;51.274;7.128;2023-03-14T06:07:55;8.50;99.90
12152;DHT22;6139;51.274;7.128;2023-03-14T06:08:56;8.50;99.90
12152;DHT22;6139;51.274;7.128;2023-03-14T06:09:58;8.50;99.90
12152;DHT22;6139;51.274;7.128;2023-03-14T06:10:59;8.50;99.90
12152;DHT22;6139;51.274;7.128;2023-03-14T06:12:05;8.50;99.90
12152;DHT22;6139;51.274;7.128;2023-03-14T06:13:12;8.50;99.90
12152;DHT22;6139;51.274;7.128;2023-03-14T06:14:17;8.50;99.90
12152;DHT22;6139;51.274;7.128;2023-03-14T06:15:21;8.50;99.90
12152;DHT22;6139;51.274;7.128;2023-03-14T06:16:25;8.50;99.90
12152;DHT22;6139;51.274;7.128;2023-03-14T06:17:28;8.50;99.90
12152;DHT22;6139;51.274;7.128;2023-03-14T06:18:36;8.50;99.90
12152;DHT22;6139;51.274;7.128;2023-03-14T06:19:40;8.50;99.90
12152;DHT22;6139;51.274;7.128;2023-03-14T06:20:43;8.50;99.90
12152;DHT22;6139;51.274;7.128;2023-03-14T06:21:47;8.50;99.90
12152;DHT22;6139;51.274;7.128;2023-03-14T06:22:50;8.50;99.90
12152;DHT22;6139;51.274;7.128;2023-03-14T06:23:51;8.50;99.90
12152;DHT22;6139;51.274;7.128;2023-03-14T06:24:54;8.50;99.90
12152;DHT22;6139;51.274;7.128;2023-03-14T06:25:56;8.50;99.90
12152;DHT22;6139;51.274;7.128;2023-03-14T06:26:59;8.50;99.90
12152;DHT22;6139;51.274;7.128;2023-03-14T06:28:00;8.50;99.90
12152;DHT22;6139;51.274;7.128;2023-03-14T06:29:02;8.50;99.90
12152;DHT22;6139;51.274;7.128;2023-03-14T06:30:05;8.50;99.90
12152;DHT22;6139;51.274;7.128;2023-03-14T06:31:08;8.50;99.90
12152;DHT22;6139;51.274;7.128;2023-03-14T06:32:18;8.50;99.90
12152;DHT22;6139;51.274;7.128;2023-03-14T06:33:21;8.50;99.90
12152;DHT22;6139;51.274;7.128;2023-03-14T06:34:22;8.50;99.90
12152;DHT22;6139;51.274;7.128;2023-03-14T06:35:24;8.50;99.90
12152;DHT22;6139;51.274;7.128;2023-03-14T06:36:26;8.50;99.90
12152;DHT22;6139;51.274;7.128;2023-03-14T06:37:27;8.50;99.90
12152;DHT22;6139;51.274;7.128;2023-03-14T06:38:31;8.50;99.90
12152;DHT22;6139;51.274;7.128;2023-03-14T06:39:33;8.50;99.90
12152;DHT22;6139;51.274;7.128;2023-03-14T06:40:41;8.50;99.90
12152;DHT22;6139;51.274;7.128;2023-03-14T06:42:01;8.50;99.90
12152;DHT22;6139;51.274;7.128;2023-03-14T06:43:03;8.50;99.90
12152;DHT22;6139;51.274;7.128;2023-03-14T06:44:06;8.50;99.90
12152;DHT22;6139;51.274;7.128;2023-03-14T06:45:09;8.50;99.90
12152;DHT22;6139;51.274;7.128;2023-03-14T06:46:10;8.50;99.90
12152;DHT22;6139;51.274;7.128;2023-03-14T06:47:14;8.50;99.90
12152;DHT22;6139;51.274;7.128;2023-03-14T06:48:18;8.50;99.90
12152;DHT22;6139;51.274;7.128;2023-03-14T06:49:25;8.50;99.90
12152;DHT22;6139;51.274;7.128;2023-03-14T06:50:28;8.50;99.90
12152;DHT22;6139;51.274;7.128;2023-03-14T06:51:32;8.50;99.90
12152;DHT22;6139;51.274;7.128;2023-03-14T06:52:33;8.60;99.90
12152;DHT22;6139;51.274;7.128;2023-03-14T06:53:36;8.60;99.90
12152;DHT22;6139;51.274;7.128;2023-03-14T06:54:37;8.60;99.90
12152;DHT22;6139;51.274;7.128;2023-03-14T06:55:39;8.60;99.90
12152;DHT22;6139;51.274;7.128;2023-03-14T06:56:41;8.60;99.90
12152;DHT22;6139;51.274;7.128;2023-03-14T06:57:44;8.60;99.90
12152;DHT22;6139;51.274;7.128;2023-03-14T06:58:45;8.60;99.90
12152;DHT22;6139;51.274;7.128;2023-03-14T06:59:47;8.60;99.90
12152;DHT22;6139;51.274;7.128;2023-03-14T07:00:49;8.60;99.90
12152;DHT22;6139;51.274;7.128;2023-03-14T07:01:55;8.60;99.90
12152;DHT22;6139;51.274;7.128;2023-03-14T07:02:57;8.60;99.90
12152;DHT22;6139;51.274;7.128;2023-03-14T07:04:12;8.60;99.90
12152;DHT22;6139;51.274;7.128;2023-03-14T07:05:18;8.60;99.90
12152;DHT22;6139;51.274;7.128;2023-03-14T07:06:19;8.60;99.90
12152;DHT22;6139;51.274;7.128;2023-03-14T07:07:22;8.60;99.90
12152;DHT22;6139;51.274;7.128;2023-03-14T07:08:23;8.70;99.90